createdAt,value
2022-08-19T00:00:10.817Z,99184.25
2022-08-19T00:00:43.296Z,99187.28
2022-08-19T00:01:15.217Z,99188.06
2022-08-19T00:02:01.166Z,99192.75
2022-08-19T00:02:33.052Z,99188.94
2022-08-19T00:03:06.572Z,99183.56
2022-08-19T00:03:38.462Z,99190.63
2022-08-19T00:04:13.059Z,99183.25
2022-08-19T00:04:47.636Z,99190.31
2022-08-19T00:05:22.668Z,99184.03
2022-08-19T00:05:54.915Z,99182.81
2022-08-19T00:06:28.707Z,99187.84
2022-08-19T00:07:01.131Z,99184.38
2022-08-19T00:07:33.065Z,99182.94
2022-08-19T00:08:05.069Z,99189.31
2022-08-19T00:08:37.243Z,99183.81
2022-08-19T00:09:17.612Z,99182.25
2022-08-19T00:09:49.535Z,99178.44
2022-08-19T00:10:21.728Z,99183.03
2022-08-19T00:10:53.673Z,99183.81
2022-08-19T00:11:28.580Z,99182.94
2022-08-19T00:12:01.191Z,99182.03
2022-08-19T00:12:34.486Z,99177.78
2022-08-19T00:13:11.457Z,99174.19
2022-08-19T00:13:43.400Z,99178.00
2022-08-19T00:14:16.953Z,99177.22
2022-08-19T00:14:48.869Z,99172.75
2022-08-19T00:15:23.548Z,99169.97
2022-08-19T00:15:57.082Z,99180.34
2022-08-19T00:16:29.302Z,99174.31
2022-08-19T00:17:03.466Z,99179.78
2022-08-19T00:17:35.356Z,99171.41
2022-08-19T00:18:14.006Z,99171.06
2022-08-19T00:18:46.342Z,99178.78
2022-08-19T00:19:18.282Z,99175.12
2022-08-19T00:19:50.295Z,99174.31
2022-08-19T00:20:22.821Z,99176.88
2022-08-19T00:20:54.788Z,99173.75
2022-08-19T00:21:28.078Z,99175.66
2022-08-19T00:22:00.544Z,99181.56
2022-08-19T00:22:32.496Z,99174.88
2022-08-19T00:23:04.425Z,99177.78
2022-08-19T00:23:38.509Z,99177.78
2022-08-19T00:24:12.839Z,99175.72
2022-08-19T00:24:50.908Z,99183.56
2022-08-19T00:25:30.039Z,99182.22
2022-08-19T00:26:02.786Z,99179.53
2022-08-19T00:26:35.598Z,99180.53
2022-08-19T00:27:25.826Z,99182.53
2022-08-19T00:27:59.927Z,99181.97
2022-08-19T00:28:33.962Z,99184.00
2022-08-19T00:29:10.035Z,99176.63
2022-08-19T00:29:42.087Z,99186.22
2022-08-19T00:30:14.209Z,99192.03
2022-08-19T00:30:46.121Z,99188.44
2022-08-19T00:31:18.641Z,99190.66
2022-08-19T00:31:54.627Z,99185.91
2022-08-19T00:32:27.222Z,99186.75
2022-08-19T00:32:59.754Z,99191.13
2022-08-19T00:33:35.260Z,99189.25
2022-08-19T00:34:07.233Z,99189.91
2022-08-19T00:34:39.197Z,99184.66
2022-08-19T00:35:11.724Z,99190.00
2022-08-19T00:35:43.636Z,99192.69
2022-08-19T00:36:16.005Z,99191.00
2022-08-19T00:36:48.174Z,99192.44
2022-08-19T00:37:24.024Z,99194.13
2022-08-19T00:37:56.356Z,99206.22
2022-08-19T00:38:35.091Z,99195.59
2022-08-19T00:39:10.563Z,99197.38
2022-08-19T00:39:42.508Z,99200.63
2022-08-19T00:40:15.082Z,99194.88
2022-08-19T00:40:47.583Z,99199.13
2022-08-19T00:41:22.385Z,99201.56
2022-08-19T00:41:54.320Z,99199.97
2022-08-19T00:42:29.306Z,99193.84
2022-08-19T00:43:01.585Z,99197.50
2022-08-19T00:43:34.565Z,99202.34
2022-08-19T00:44:06.639Z,99203.78
2022-08-19T00:44:39.347Z,99193.53
2022-08-19T00:45:16.133Z,99195.09
2022-08-19T00:45:49.045Z,99201.28
2022-08-19T00:46:21.512Z,99201.94
2022-08-19T00:46:57.870Z,99199.38
2022-08-19T00:47:29.940Z,99204.44
2022-08-19T00:48:05.260Z,99195.59
2022-08-19T00:48:46.595Z,99201.59
2022-08-19T00:49:30.763Z,99205.47
2022-08-19T00:50:02.681Z,99205.22
2022-08-19T00:50:35.451Z,99201.94
2022-08-19T00:51:24.450Z,99204.16
2022-08-19T00:52:05.365Z,99201.94
2022-08-19T00:52:46.118Z,99200.53
2022-08-19T00:53:22.675Z,99200.53
2022-08-19T00:53:58.049Z,99201.28
2022-08-19T00:54:32.453Z,99204.75
2022-08-19T00:55:09.676Z,99200.34
2022-08-19T00:55:45.763Z,99201.66
2022-08-19T00:56:18.255Z,99198.22
2022-08-19T00:56:51.878Z,99191.94
2022-08-19T00:57:38.632Z,99198.06
2022-08-19T00:58:14.914Z,99198.16
2022-08-19T00:58:47.546Z,99199.09
2022-08-19T01:00:00.751Z,99198.16
2022-08-19T01:00:15.946Z,99199.25
2022-08-19T01:00:49.097Z,99197.06
2022-08-19T01:01:21.105Z,99199.22
2022-08-19T01:01:53.633Z,99193.59
2022-08-19T01:02:27.555Z,99186.37
2022-08-19T01:02:59.531Z,99190.00
2022-08-19T01:03:57.552Z,99192.06
2022-08-19T01:04:23.819Z,99195.66
2022-08-19T01:04:56.738Z,99194.38
2022-08-19T01:05:30.383Z,99190.09
2022-08-19T01:06:02.479Z,99189.16
2022-08-19T01:06:38.254Z,99183.97
2022-08-19T01:07:10.288Z,99178.75
2022-08-19T01:07:49.156Z,99187.69
2022-08-19T01:08:21.295Z,99186.91
2022-08-19T01:08:54.520Z,99182.78
2022-08-19T01:09:26.778Z,99184.50
2022-08-19T01:09:58.711Z,99180.84
2022-08-19T01:10:37.411Z,99178.53
2022-08-19T01:11:09.499Z,99180.06
2022-08-19T01:11:45.541Z,99180.06
2022-08-19T01:12:18.640Z,99173.28
2022-08-19T01:12:52.793Z,99168.88
2022-08-19T01:13:49.463Z,99171.22
2022-08-19T01:14:22.239Z,99169.00
2022-08-19T01:14:56.377Z,99168.69
2022-08-19T01:15:32.301Z,99168.34
2022-08-19T01:16:10.915Z,99170.81
2022-08-19T01:16:44.088Z,99173.50
2022-08-19T01:17:17.189Z,99161.81
2022-08-19T01:17:50.323Z,99169.72
2022-08-19T01:18:23.055Z,99171.88
2022-08-19T01:18:54.977Z,99174.09
2022-08-19T01:19:44.117Z,99171.75
2022-08-19T01:20:20.750Z,99170.81
2022-08-19T01:20:55.275Z,99173.03
2022-08-19T01:21:43.563Z,99166.25
2022-08-19T01:22:30.071Z,99167.38
2022-08-19T01:23:04.611Z,99171.94
2022-08-19T01:23:45.820Z,99174.16
2022-08-19T01:24:18.028Z,99166.91
2022-08-19T01:24:50.435Z,99165.47
2022-08-19T01:25:30.356Z,99171.75
2022-08-19T01:26:02.562Z,99163.25
2022-08-19T01:26:40.852Z,99169.53
2022-08-19T01:27:14.117Z,99166.88
2022-08-19T01:27:48.659Z,99168.41
2022-08-19T01:28:34.300Z,99178.00
2022-08-19T01:29:13.261Z,99172.66
2022-08-19T01:29:46.895Z,99174.88
2022-08-19T01:30:26.474Z,99174.88
2022-08-19T01:30:58.703Z,99170.63
2022-08-19T01:31:33.827Z,99176.31
2022-08-19T01:32:06.176Z,99179.13
2022-08-19T01:32:38.489Z,99177.56
2022-08-19T01:33:10.620Z,99180.25
2022-08-19T01:33:42.836Z,99177.09
2022-08-19T01:34:14.750Z,99179.03
2022-08-19T01:34:48.003Z,99181.72
2022-08-19T01:35:21.052Z,99179.56
2022-08-19T01:35:53.597Z,99178.84
2022-08-19T01:36:32.087Z,99176.66
2022-08-19T01:37:09.247Z,99176.47
2022-08-19T01:38:01.907Z,99181.00
2022-08-19T01:38:37.822Z,99181.78
2022-08-19T01:39:21.053Z,99173.69
2022-08-19T01:39:52.980Z,99180.75
2022-08-19T01:40:30.180Z,99179.50
2022-08-19T01:41:02.388Z,99178.19
2022-08-19T01:41:43.302Z,99175.97
2022-08-19T01:42:15.201Z,99174.88
2022-08-19T01:42:51.651Z,99174.75
2022-08-19T01:43:23.773Z,99179.44
2022-08-19T01:44:13.280Z,99171.56
2022-08-19T01:44:49.906Z,99173.59
2022-08-19T01:45:25.006Z,99170.47
2022-08-19T01:45:58.335Z,99169.53
2022-08-19T01:46:31.107Z,99170.34
2022-08-19T01:47:04.737Z,99170.34
2022-08-19T01:47:37.921Z,99173.03
2022-08-19T01:48:09.936Z,99174.09
2022-08-19T01:48:43.364Z,99170.16
2022-08-19T01:49:17.018Z,99164.38
2022-08-19T01:49:48.905Z,99172.72
2022-08-19T01:50:21.198Z,99168.94
2022-08-19T01:50:54.049Z,99169.06
2022-08-19T01:51:26.122Z,99168.72
2022-08-19T01:52:00.326Z,99165.63
2022-08-19T01:52:32.536Z,99165.94
2022-08-19T01:53:08.152Z,99167.06
2022-08-19T01:53:40.896Z,99165.94
2022-08-19T01:54:23.475Z,99158.94
2022-08-19T01:54:59.268Z,99153.47
2022-08-19T01:55:31.278Z,99152.38
2022-08-19T01:56:04.754Z,99154.41
2022-08-19T01:56:37.084Z,99156.59
2022-08-19T01:57:13.123Z,99152.44
2022-08-19T01:57:49.075Z,99143.81
2022-08-19T01:58:25.681Z,99151.50
2022-08-19T01:59:02.672Z,99146.94
2022-08-19T01:59:37.401Z,99146.94
2022-08-19T02:00:13.434Z,99149.50
2022-08-19T02:00:46.381Z,99149.97
2022-08-19T02:01:18.766Z,99150.72
2022-08-19T02:01:50.781Z,99146.47
2022-08-19T02:02:22.696Z,99142.72
2022-08-19T02:02:55.211Z,99145.19
2022-08-19T02:03:27.294Z,99143.16
2022-08-19T02:04:01.753Z,99142.25
2022-08-19T02:04:35.155Z,99144.81
2022-08-19T02:05:10.674Z,99139.66
2022-08-19T02:05:44.768Z,99142.91
2022-08-19T02:06:18.032Z,99141.31
2022-08-19T02:06:49.960Z,99146.03
2022-08-19T02:07:22.673Z,99140.53
2022-08-19T02:07:54.562Z,99139.87
2022-08-19T02:08:27.769Z,99142.44
2022-08-19T02:08:59.928Z,99142.13
2022-08-19T02:09:32.836Z,99144.47
2022-08-19T02:10:09.423Z,99146.66
2022-08-19T02:10:45.269Z,99141.50
2022-08-19T02:11:37.420Z,99150.19
2022-08-19T02:12:09.900Z,99141.69
2022-08-19T02:12:41.806Z,99141.59
2022-08-19T02:13:14.686Z,99139.03
2022-08-19T02:13:46.605Z,99138.72
2022-08-19T02:14:18.493Z,99134.66
2022-08-19T02:14:50.394Z,99129.84
2022-08-19T02:15:22.879Z,99129.97
2022-08-19T02:15:54.845Z,99129.00
2022-08-19T02:16:27.096Z,99132.25
2022-08-19T02:16:59.045Z,99131.94
2022-08-19T02:17:31.104Z,99136.16
2022-08-19T02:18:03.048Z,99127.81
2022-08-19T02:18:34.936Z,99136.78
2022-08-19T02:19:07.242Z,99130.81
2022-08-19T02:19:41.037Z,99132.72
2022-08-19T02:20:14.861Z,99133.06
2022-08-19T02:20:50.423Z,99131.78
2022-08-19T02:21:24.818Z,99137.47
2022-08-19T02:21:57.044Z,99133.50
2022-08-19T02:22:29.277Z,99134.16
2022-08-19T02:23:02.286Z,99131.16
2022-08-19T02:23:34.243Z,99130.19
2022-08-19T02:24:06.187Z,99133.50
2022-08-19T02:24:38.348Z,99130.03
2022-08-19T02:25:15.401Z,99134.16
2022-08-19T02:25:49.586Z,99135.84
2022-08-19T02:26:21.504Z,99131.94
2022-08-19T02:26:53.562Z,99131.94
2022-08-19T02:27:26.818Z,99137.13
2022-08-19T02:27:58.787Z,99132.59
2022-08-19T02:28:30.718Z,99127.56
2022-08-19T02:29:02.680Z,99126.63
2022-08-19T02:29:34.575Z,99122.72
2022-08-19T02:30:09.082Z,99116.53
2022-08-19T02:30:47.013Z,99119.91
2022-08-19T02:31:22.748Z,99123.56
2022-08-19T02:31:57.596Z,99117.16
2022-08-19T02:32:31.549Z,99114.28
2022-08-19T02:33:03.615Z,99113.00
2022-08-19T02:33:35.538Z,99119.84
2022-08-19T02:34:07.521Z,99109.34
2022-08-19T02:34:39.414Z,99101.66
2022-08-19T02:35:12.130Z,99106.06
2022-08-19T02:35:48.103Z,99100.06
2022-08-19T02:36:21.275Z,99100.22
2022-08-19T02:36:53.292Z,99100.53
2022-08-19T02:37:43.706Z,99102.94
2022-08-19T02:38:28.282Z,99093.87
2022-08-19T02:39:00.208Z,99096.53
2022-08-19T02:39:32.260Z,99096.16
2022-08-19T02:40:04.917Z,99099.44
2022-08-19T02:40:52.834Z,99092.41
2022-08-19T02:41:28.838Z,99092.41
2022-08-19T02:42:00.763Z,99098.62
2022-08-19T02:42:33.223Z,99103.38
2022-08-19T02:43:08.578Z,99102.91
2022-08-19T02:43:44.411Z,99109.16
2022-08-19T02:44:33.752Z,99108.75
2022-08-19T02:45:06.626Z,99113.31
2022-08-19T02:45:41.764Z,99113.50
2022-08-19T02:46:22.711Z,99117.50
2022-08-19T02:46:54.612Z,99120.59
2022-08-19T02:47:26.503Z,99131.13
2022-08-19T02:47:58.447Z,99127.47
2022-08-19T02:48:31.077Z,99129.97
2022-08-19T02:49:07.662Z,99126.03
2022-08-19T02:49:39.644Z,99125.84
2022-08-19T02:50:11.656Z,99123.38
2022-08-19T02:50:53.479Z,99130.59
2022-08-19T02:51:35.306Z,99130.59
2022-08-19T02:52:07.320Z,99132.16
2022-08-19T02:52:39.237Z,99128.44
2022-08-19T02:53:11.374Z,99130.06
2022-08-19T02:53:45.365Z,99140.91
2022-08-19T02:54:17.608Z,99136.22
2022-08-19T02:54:49.545Z,99137.13
2022-08-19T02:55:21.935Z,99137.94
2022-08-19T02:55:54.346Z,99140.13
2022-08-19T02:56:28.080Z,99139.66
2022-08-19T02:56:59.981Z,99140.91
2022-08-19T02:57:32.802Z,99135.38
2022-08-19T02:58:04.692Z,99139.59
2022-08-19T02:58:40.241Z,99137.28
2022-08-19T02:59:12.795Z,99144.28
2022-08-19T02:59:45.357Z,99140.06
2022-08-19T03:00:17.728Z,99143.47
2022-08-19T03:00:53.513Z,99139.75
2022-08-19T03:01:31.138Z,99143.50
2022-08-19T03:02:03.370Z,99153.91
2022-08-19T03:02:35.237Z,99145.88
2022-08-19T03:03:07.150Z,99143.38
2022-08-19T03:03:39.465Z,99151.41
2022-08-19T03:04:14.163Z,99153.16
2022-08-19T03:04:47.166Z,99148.88
2022-08-19T03:05:19.365Z,99152.00
2022-08-19T03:06:14.876Z,99141.97
2022-08-19T03:06:48.433Z,99150.66
2022-08-19T03:07:20.383Z,99152.09
2022-08-19T03:07:52.326Z,99147.53
2022-08-19T03:08:25.307Z,99150.19
2022-08-19T03:08:57.983Z,99153.06
2022-08-19T03:09:31.100Z,99157.47
2022-08-19T03:10:04.411Z,99153.84
2022-08-19T03:10:43.163Z,99153.53
2022-08-19T03:11:22.622Z,99159.66
2022-08-19T03:11:54.515Z,99166.59
2022-08-19T03:12:26.481Z,99167.06
2022-08-19T03:12:58.431Z,99166.44
2022-08-19T03:13:34.269Z,99160.78
2022-08-19T03:14:08.861Z,99171.78
2022-08-19T03:14:40.805Z,99164.44
2022-08-19T03:15:13.220Z,99163.13
2022-08-19T03:15:47.117Z,99169.44
2022-08-19T03:16:20.565Z,99165.50
2022-08-19T03:16:53.573Z,99168.78
2022-08-19T03:17:25.488Z,99166.09
2022-08-19T03:17:57.363Z,99165.50
2022-08-19T03:18:29.380Z,99170.56
2022-08-19T03:19:02.596Z,99161.94
2022-08-19T03:19:34.706Z,99167.41
2022-08-19T03:20:07.145Z,99168.84
2022-08-19T03:20:48.879Z,99169.59
2022-08-19T03:21:26.105Z,99169.44
2022-08-19T03:21:59.078Z,99167.41
2022-08-19T03:22:31.059Z,99170.25
2022-08-19T03:23:03.079Z,99170.72
2022-08-19T03:23:36.216Z,99171.81
2022-08-19T03:24:09.721Z,99166.81
2022-08-19T03:24:41.628Z,99174.03
2022-08-19T03:25:13.726Z,99175.47
2022-08-19T03:26:03.307Z,99174.22
2022-08-19T03:26:46.278Z,99177.81
2022-08-19T03:27:18.693Z,99179.53
2022-08-19T03:27:50.594Z,99182.31
2022-08-19T03:28:22.574Z,99183.75
2022-08-19T03:28:58.593Z,99185.94
2022-08-19T03:29:32.639Z,99182.03
2022-08-19T03:30:05.338Z,99186.59
2022-08-19T03:30:40.682Z,99188.50
2022-08-19T03:31:45.202Z,99186.47
2022-08-19T03:32:07.930Z,99184.09
2022-08-19T03:32:59.807Z,99186.91
2022-08-19T03:33:33.294Z,99192.72
2022-08-19T03:34:08.068Z,99184.69
2022-08-19T03:34:40.433Z,99181.25
2022-08-19T03:35:12.348Z,99182.03
2022-08-19T03:35:46.124Z,99182.16
2022-08-19T03:36:24.171Z,99184.81
2022-08-19T03:36:58.820Z,99183.44
2022-08-19T03:37:30.776Z,99183.44
2022-08-19T03:38:02.649Z,99178.56
2022-08-19T03:38:36.433Z,99180.47
2022-08-19T03:39:09.539Z,99179.03
2022-08-19T03:39:43.221Z,99184.38
2022-08-19T03:40:16.532Z,99179.03
2022-08-19T03:40:48.635Z,99182.03
2022-08-19T03:41:24.889Z,99183.72
2022-08-19T03:42:38.677Z,99185.28
2022-08-19T03:43:07.110Z,99183.25
2022-08-19T03:43:41.518Z,99185.59
2022-08-19T03:44:23.127Z,99183.72
2022-08-19T03:44:55.061Z,99187.31
2022-08-19T03:45:27.247Z,99181.66
2022-08-19T03:46:23.361Z,99184.34
2022-08-19T03:46:58.689Z,99190.31
2022-08-19T03:47:31.452Z,99194.88
2022-08-19T03:48:03.638Z,99187.63
2022-08-19T03:48:37.144Z,99186.37
2022-08-19T03:49:09.420Z,99187.53
2022-08-19T03:49:41.627Z,99186.06
2022-08-19T03:50:13.909Z,99186.41
2022-08-19T03:50:45.945Z,99182.94
2022-08-19T03:51:20.707Z,99186.88
2022-08-19T03:52:06.547Z,99185.28
2022-08-19T03:52:38.676Z,99188.78
2022-08-19T03:53:10.609Z,99187.84
2022-08-19T03:53:42.509Z,99185.03
2022-08-19T03:54:17.338Z,99184.09
2022-08-19T03:54:49.233Z,99183.44
2022-08-19T03:55:21.226Z,99188.16
2022-08-19T03:55:54.527Z,99189.25
2022-08-19T03:56:27.258Z,99183.16
2022-08-19T03:56:59.403Z,99187.06
2022-08-19T03:57:32.276Z,99192.41
2022-08-19T03:58:04.236Z,99189.56
2022-08-19T03:58:36.561Z,99186.25
2022-08-19T03:59:16.138Z,99183.56
2022-08-19T03:59:48.099Z,99189.84
2022-08-19T04:00:20.552Z,99186.59
2022-08-19T04:00:52.864Z,99180.66
2022-08-19T04:01:35.218Z,99182.56
2022-08-19T04:02:11.782Z,99186.94
2022-08-19T04:02:58.490Z,99179.41
2022-08-19T04:03:32.656Z,99182.19
2022-08-19T04:04:04.985Z,99185.66
2022-08-19T04:04:39.321Z,99182.97
2022-08-19T04:05:11.575Z,99178.56
2022-08-19T04:05:43.506Z,99178.75
2022-08-19T04:06:15.721Z,99183.16
2022-08-19T04:06:48.230Z,99178.91
2022-08-19T04:07:22.356Z,99177.16
2022-08-19T04:07:54.367Z,99180.63
2022-08-19T04:08:26.260Z,99179.16
2022-08-19T04:08:59.830Z,99180.00
2022-08-19T04:09:32.026Z,99178.34
2022-08-19T04:10:04.482Z,99179.44
2022-08-19T04:10:37.606Z,99177.97
2022-08-19T04:11:15.948Z,99170.31
2022-08-19T04:11:53.627Z,99180.81
2022-08-19T04:12:25.608Z,99181.66
2022-08-19T04:12:57.480Z,99186.34
2022-08-19T04:13:29.388Z,99185.09
2022-08-19T04:14:02.052Z,99189.16
2022-08-19T04:14:36.582Z,99193.53
2022-08-19T04:15:09.379Z,99185.22
2022-08-19T04:15:43.436Z,99192.41
2022-08-19T04:16:15.571Z,99193.34
2022-08-19T04:16:49.403Z,99195.56
2022-08-19T04:17:23.249Z,99199.19
2022-08-19T04:17:55.785Z,99199.47
2022-08-19T04:18:33.572Z,99197.47
2022-08-19T04:19:08.686Z,99201.84
2022-08-19T04:19:41.891Z,99205.75
2022-08-19T04:20:13.787Z,99202.28
2022-08-19T04:20:48.627Z,99204.19
2022-08-19T04:21:25.919Z,99200.72
2022-08-19T04:21:58.303Z,99202.94
2022-08-19T04:22:31.229Z,99201.37
2022-08-19T04:23:03.111Z,99194.97
2022-08-19T04:23:39.282Z,99200.13
2022-08-19T04:24:18.617Z,99191.00
2022-08-19T04:24:50.584Z,99195.38
2022-08-19T04:25:22.495Z,99202.28
2022-08-19T04:25:54.897Z,99196.75
2022-08-19T04:26:33.310Z,99199.47
2022-08-19T04:27:07.113Z,99201.34
2022-08-19T04:27:39.377Z,99201.81
2022-08-19T04:28:14.130Z,99196.94
2022-08-19T04:28:47.113Z,99209.34
2022-08-19T04:29:25.761Z,99210.44
2022-08-19T04:29:58.259Z,99212.50
2022-08-19T04:30:30.188Z,99214.38
2022-08-19T04:31:02.086Z,99210.78
2022-08-19T04:31:36.725Z,99212.66
2022-08-19T04:32:09.901Z,99219.56
2022-08-19T04:32:44.687Z,99207.97
2022-08-19T04:33:28.486Z,99207.66
2022-08-19T04:34:02.525Z,99213.28
2022-08-19T04:34:34.469Z,99211.97
2022-08-19T04:35:16.953Z,99216.59
2022-08-19T04:35:52.533Z,99212.16
2022-08-19T04:36:32.115Z,99219.12
2022-08-19T04:37:08.866Z,99214.69
2022-08-19T04:37:40.771Z,99221.47
2022-08-19T04:38:13.133Z,99215.50
2022-08-19T04:38:45.055Z,99211.91
2022-08-19T04:39:20.465Z,99210.81
2022-08-19T04:40:11.224Z,99214.09
2022-08-19T04:41:07.164Z,99211.41
2022-08-19T04:41:57.866Z,99214.09
2022-08-19T04:42:41.932Z,99211.25
2022-08-19T04:43:16.652Z,99215.47
2022-08-19T04:43:49.747Z,99216.75
2022-08-19T04:44:22.042Z,99214.38
2022-08-19T04:44:54.120Z,99220.38
2022-08-19T04:45:26.417Z,99213.28
2022-08-19T04:46:01.073Z,99214.38
2022-08-19T04:46:40.224Z,99214.53
2022-08-19T04:47:47.967Z,99216.75
2022-08-19T04:48:26.142Z,99215.00
2022-08-19T04:49:10.391Z,99212.50
2022-08-19T04:49:45.208Z,99209.66
2022-08-19T04:50:17.242Z,99212.62
2022-08-19T04:50:51.244Z,99209.81
2022-08-19T04:51:23.776Z,99212.34
2022-08-19T04:51:56.494Z,99207.94
2022-08-19T04:52:28.396Z,99205.06
2022-08-19T04:53:00.293Z,99208.84
2022-08-19T04:53:38.067Z,99212.31
2022-08-19T04:54:10.275Z,99206.84
2022-08-19T04:54:42.203Z,99211.09
2022-08-19T04:55:15.349Z,99210.78
2022-08-19T04:55:47.242Z,99201.94
2022-08-19T04:56:21.769Z,99213.09
2022-08-19T04:56:54.077Z,99207.16
2022-08-19T04:57:27.177Z,99214.84
2022-08-19T04:57:59.216Z,99208.06
2022-08-19T04:58:32.458Z,99207.41
2022-08-19T04:59:05.043Z,99214.38
2022-08-19T04:59:38.630Z,99215.00
2022-08-19T05:00:12.160Z,99211.97
2022-08-19T05:00:44.921Z,99219.81
2022-08-19T05:01:27.601Z,99210.56
2022-08-19T05:01:59.600Z,99221.41
2022-08-19T05:02:31.534Z,99213.56
2022-08-19T05:03:03.457Z,99213.28
2022-08-19T05:03:40.407Z,99223.28
2022-08-19T05:04:12.374Z,99219.03
2022-08-19T05:04:44.322Z,99221.31
2022-08-19T05:05:16.443Z,99223.31
2022-08-19T05:05:49.645Z,99225.03
2022-08-19T05:06:23.529Z,99218.09
2022-08-19T05:06:56.989Z,99225.47
2022-08-19T05:07:32.946Z,99230.91
2022-08-19T05:08:04.845Z,99229.34
2022-08-19T05:08:42.627Z,99232.28
2022-08-19T05:09:15.517Z,99225.50
2022-08-19T05:09:58.544Z,99224.72
2022-08-19T05:10:31.766Z,99224.72
2022-08-19T05:11:10.792Z,99222.31
2022-08-19T05:11:46.113Z,99223.25
2022-08-19T05:12:18.743Z,99218.72
2022-08-19T05:12:50.657Z,99218.81
2022-08-19T05:13:22.551Z,99216.59
2022-08-19T05:13:54.638Z,99212.97
2022-08-19T05:14:26.833Z,99210.28
2022-08-19T05:14:59.437Z,99212.97
2022-08-19T05:15:32.197Z,99205.91
2022-08-19T05:16:04.888Z,99212.84
2022-08-19T05:16:36.939Z,99205.12
2022-08-19T05:17:26.644Z,99204.34
2022-08-19T05:18:17.865Z,99209.34
2022-08-19T05:19:11.426Z,99211.69
2022-08-19T05:20:02.044Z,99211.44
2022-08-19T05:20:52.604Z,99211.88
2022-08-19T05:21:43.608Z,99216.31
2022-08-19T05:22:35.667Z,99223.56
2022-08-19T05:23:12.720Z,99222.78
2022-08-19T05:23:52.709Z,99227.91
2022-08-19T05:24:25.190Z,99226.63
2022-08-19T05:25:12.123Z,99229.81
2022-08-19T05:25:45.416Z,99228.38
2022-08-19T05:26:17.360Z,99236.16
2022-08-19T05:26:51.335Z,99228.56
2022-08-19T05:27:23.275Z,99234.38
2022-08-19T05:27:55.214Z,99231.44
2022-08-19T05:28:27.162Z,99229.16
2022-08-19T05:28:59.077Z,99226.66
2022-08-19T05:29:36.203Z,99227.75
2022-08-19T05:30:09.648Z,99230.28
2022-08-19T05:30:47.259Z,99230.56
2022-08-19T05:31:19.820Z,99231.09
2022-08-19T05:31:52.419Z,99227.91
2022-08-19T05:32:24.449Z,99233.53
2022-08-19T05:32:56.852Z,99228.94
2022-08-19T05:33:28.748Z,99232.56
2022-08-19T05:34:01.013Z,99238.37
2022-08-19T05:34:33.922Z,99232.56
2022-08-19T05:35:06.751Z,99230.81
2022-08-19T05:35:40.309Z,99227.59
2022-08-19T05:36:12.999Z,99234.50
2022-08-19T05:36:46.558Z,99237.38
2022-08-19T05:37:18.565Z,99235.53
2022-08-19T05:37:50.611Z,99246.72
2022-08-19T05:38:28.375Z,99243.84
2022-08-19T05:39:00.292Z,99232.69
2022-08-19T05:39:35.317Z,99245.66
2022-08-19T05:40:08.341Z,99240.84
2022-08-19T05:40:41.253Z,99241.63
2022-08-19T05:41:16.193Z,99238.50
2022-08-19T05:41:50.740Z,99239.41
2022-08-19T05:42:24.093Z,99237.72
2022-08-19T05:42:56.162Z,99231.50
2022-08-19T05:43:28.042Z,99233.78
2022-08-19T05:44:03.857Z,99235.50
2022-08-19T05:44:40.383Z,99235.31
2022-08-19T05:45:12.340Z,99229.69
2022-08-19T05:45:46.555Z,99219.25
2022-08-19T05:46:27.800Z,99227.53
2022-08-19T05:47:03.030Z,99220.19
2022-08-19T05:47:36.065Z,99228.94
2022-08-19T05:48:14.345Z,99226.66
2022-08-19T05:48:46.852Z,99231.81
2022-08-19T05:49:18.747Z,99231.50
2022-08-19T05:49:53.340Z,99227.69
2022-08-19T05:50:27.365Z,99226.59
2022-08-19T05:51:05.115Z,99230.25
2022-08-19T05:51:38.339Z,99231.06
2022-08-19T05:52:13.442Z,99237.78
2022-08-19T05:52:50.642Z,99238.00
2022-08-19T05:53:22.758Z,99233.13
2022-08-19T05:53:54.658Z,99235.34
2022-08-19T05:54:26.757Z,99226.31
2022-08-19T05:54:58.675Z,99230.84
2022-08-19T05:55:30.588Z,99233.78
2022-08-19T05:56:12.689Z,99230.87
2022-08-19T05:56:45.546Z,99231.56
2022-08-19T05:57:17.610Z,99227.78
2022-08-19T05:57:49.770Z,99232.03
2022-08-19T05:58:23.230Z,99224.59
2022-08-19T05:58:59.643Z,99227.88
2022-08-19T05:59:31.794Z,99228.66
2022-08-19T06:00:10.459Z,99239.63
2022-08-19T06:00:45.604Z,99235.78
2022-08-19T06:01:19.571Z,99232.91
2022-08-19T06:01:53.276Z,99234.31
2022-08-19T06:02:29.456Z,99234.69
2022-08-19T06:03:11.375Z,99237.53
2022-08-19T06:03:46.013Z,99230.81
2022-08-19T06:04:20.442Z,99237.88
2022-08-19T06:04:52.317Z,99236.31
2022-08-19T06:05:24.321Z,99229.72
2022-08-19T06:05:56.273Z,99235.84
2022-08-19T06:06:28.520Z,99226.69
2022-08-19T06:07:00.475Z,99231.63
2022-08-19T06:07:44.362Z,99223.37
2022-08-19T06:08:19.365Z,99229.94
2022-08-19T06:08:51.798Z,99232.06
2022-08-19T06:09:24.543Z,99233.09
2022-08-19T06:10:00.756Z,99224.59
2022-08-19T06:10:33.162Z,99228.00
2022-08-19T06:11:22.318Z,99224.06
2022-08-19T06:12:01.005Z,99230.69
2022-08-19T06:12:35.407Z,99229.22
2022-08-19T06:13:07.553Z,99224.75
2022-08-19T06:13:39.671Z,99225.88
2022-08-19T06:14:16.775Z,99230.34
2022-08-19T06:14:48.729Z,99230.22
2022-08-19T06:15:33.235Z,99228.56
2022-08-19T06:16:06.728Z,99233.47
2022-08-19T06:16:41.539Z,99230.69
2022-08-19T06:17:14.101Z,99231.00
2022-08-19T06:17:46.030Z,99231.78
2022-08-19T06:18:18.124Z,99230.47
2022-08-19T06:18:53.852Z,99230.56
2022-08-19T06:19:26.373Z,99225.78
2022-08-19T06:19:59.590Z,99234.69
2022-08-19T06:20:54.382Z,99235.50
2022-08-19T06:21:28.331Z,99226.31
2022-08-19T06:22:01.845Z,99231.00
2022-08-19T06:22:40.043Z,99230.78
2022-08-19T06:23:12.058Z,99231.31
2022-08-19T06:23:51.348Z,99232.22
2022-08-19T06:24:26.317Z,99229.44
2022-08-19T06:24:58.444Z,99234.81
2022-08-19T06:25:30.967Z,99225.09
2022-08-19T06:26:02.864Z,99228.22
2022-08-19T06:26:42.017Z,99224.31
2022-08-19T06:27:13.972Z,99230.22
2022-08-19T06:28:11.901Z,99231.00
2022-08-19T06:28:47.052Z,99228.56
2022-08-19T06:29:23.758Z,99228.78
2022-08-19T06:29:56.011Z,99233.91
2022-08-19T06:30:28.379Z,99227.19
2022-08-19T06:31:02.632Z,99229.00
2022-08-19T06:31:36.855Z,99230.22
2022-08-19T06:32:09.517Z,99229.53
2022-08-19T06:32:43.004Z,99229.31
2022-08-19T06:33:15.383Z,99226.84
2022-08-19T06:33:48.636Z,99227.59
2022-08-19T06:34:22.223Z,99234.03
2022-08-19T06:34:54.150Z,99229.13
2022-08-19T06:35:26.431Z,99243.53
2022-08-19T06:35:58.385Z,99238.44
2022-08-19T06:36:39.613Z,99232.91
2022-08-19T06:37:12.576Z,99237.59
2022-08-19T06:37:45.304Z,99239.03
2022-08-19T06:38:17.498Z,99237.31
2022-08-19T06:38:49.547Z,99234.62
2022-08-19T06:39:25.239Z,99233.50
2022-08-19T06:39:57.218Z,99230.56
2022-08-19T06:40:29.161Z,99237.69
2022-08-19T06:41:07.603Z,99237.16
2022-08-19T06:41:47.312Z,99232.50
2022-08-19T06:42:23.993Z,99229.69
2022-08-19T06:42:57.253Z,99225.19
2022-08-19T06:43:29.757Z,99231.63
2022-08-19T06:44:01.706Z,99221.84
2022-08-19T06:44:42.348Z,99226.59
2022-08-19T06:45:15.771Z,99224.28
2022-08-19T06:45:49.386Z,99230.50
2022-08-19T06:46:21.865Z,99224.78
2022-08-19T06:46:56.569Z,99222.72
2022-08-19T06:47:29.187Z,99228.78
2022-08-19T06:48:01.146Z,99227.22
2022-08-19T06:48:37.738Z,99222.38
2022-08-19T06:49:18.493Z,99222.53
2022-08-19T06:49:50.763Z,99228.97
2022-08-19T06:50:26.017Z,99226.59